sensor_id;sensor_type;location;lat;lon;timestamp;P1;durP1;ratioP1;P2;durP2;ratioP2
41546;SDS011;27271;45.412;10.852;2022-09-09T00:02:37;11.57;;;7.82;;
41546;SDS011;27271;45.412;10.852;2022-09-09T00:06:26;13.82;;;8.07;;
41546;SDS011;27271;45.412;10.852;2022-09-09T00:13:31;12.13;;;7.57;;
41546;SDS011;27271;45.412;10.852;2022-09-09T00:17:01;12.18;;;8.00;;
41546;SDS011;27271;45.412;10.852;2022-09-09T00:23:54;11.65;;;7.47;;
41546;SDS011;27271;45.412;10.852;2022-09-09T00:27:19;13.25;;;8.57;;
41546;SDS011;27271;45.412;10.852;2022-09-09T00:30:55;12.68;;;8.95;;
41546;SDS011;27271;45.412;10.852;2022-09-09T00:34:20;13.73;;;8.98;;
41546;SDS011;27271;45.412;10.852;2022-09-09T00:37:46;16.65;;;9.52;;
41546;SDS011;27271;45.412;10.852;2022-09-09T00:41:14;17.17;;;9.90;;
41546;SDS011;27271;45.412;10.852;2022-09-09T00:44:49;18.67;;;11.68;;
41546;SDS011;27271;45.412;10.852;2022-09-09T00:52:43;19.65;;;11.70;;
41546;SDS011;27271;45.412;10.852;2022-09-09T01:00:35;17.85;;;11.30;;
41546;SDS011;27271;45.412;10.852;2022-09-09T01:04:05;17.20;;;10.82;;
41546;SDS011;27271;45.412;10.852;2022-09-09T01:07:37;14.75;;;10.43;;
41546;SDS011;27271;45.412;10.852;2022-09-09T01:11:01;19.45;;;11.00;;
41546;SDS011;27271;45.412;10.852;2022-09-09T01:18:06;19.67;;;9.98;;
41546;SDS011;27271;45.412;10.852;2022-09-09T01:21:39;14.50;;;9.65;;
41546;SDS011;27271;45.412;10.852;2022-09-09T01:28:52;22.42;;;9.70;;
41546;SDS011;27271;45.412;10.852;2022-09-09T01:32:43;11.55;;;8.95;;
41546;SDS011;27271;45.412;10.852;2022-09-09T01:36:12;14.73;;;9.20;;
41546;SDS011;27271;45.412;10.852;2022-09-09T01:39:44;19.13;;;9.32;;
41546;SDS011;27271;45.412;10.852;2022-09-09T01:43:09;15.70;;;9.38;;
41546;SDS011;27271;45.412;10.852;2022-09-09T01:46:32;14.35;;;8.65;;
41546;SDS011;27271;45.412;10.852;2022-09-09T01:49:55;14.73;;;8.85;;
41546;SDS011;27271;45.412;10.852;2022-09-09T01:53:21;12.88;;;7.50;;
41546;SDS011;27271;45.412;10.852;2022-09-09T01:56:47;13.25;;;7.90;;
41546;SDS011;27271;45.412;10.852;2022-09-09T02:00:33;15.98;;;8.18;;
41546;SDS011;27271;45.412;10.852;2022-09-09T02:04:03;12.65;;;7.80;;
41546;SDS011;27271;45.412;10.852;2022-09-09T02:07:40;11.93;;;7.90;;
41546;SDS011;27271;45.412;10.852;2022-09-09T02:11:18;14.95;;;7.75;;
41546;SDS011;27271;45.412;10.852;2022-09-09T02:15:03;17.02;;;7.65;;
41546;SDS011;27271;45.412;10.852;2022-09-09T02:18:42;11.88;;;8.02;;
41546;SDS011;27271;45.412;10.852;2022-09-09T02:22:16;14.55;;;7.90;;
41546;SDS011;27271;45.412;10.852;2022-09-09T02:25:41;12.85;;;8.32;;
41546;SDS011;27271;45.412;10.852;2022-09-09T02:29:21;11.70;;;7.15;;
41546;SDS011;27271;45.412;10.852;2022-09-09T02:32:48;11.50;;;6.93;;
41546;SDS011;27271;45.412;10.852;2022-09-09T02:36:15;9.27;;;7.07;;
41546;SDS011;27271;45.412;10.852;2022-09-09T02:39:39;13.30;;;7.00;;
41546;SDS011;27271;45.412;10.852;2022-09-09T02:43:04;10.60;;;6.50;;
41546;SDS011;27271;45.412;10.852;2022-09-09T02:57:26;10.30;;;6.43;;
41546;SDS011;27271;45.412;10.852;2022-09-09T03:00:51;8.85;;;6.40;;
41546;SDS011;27271;45.412;10.852;2022-09-09T03:04:15;11.32;;;6.25;;
41546;SDS011;27271;45.412;10.852;2022-09-09T03:07:37;11.95;;;6.35;;
41546;SDS011;27271;45.412;10.852;2022-09-09T03:11:02;8.88;;;6.53;;
41546;SDS011;27271;45.412;10.852;2022-09-09T03:14:28;11.88;;;6.68;;
41546;SDS011;27271;45.412;10.852;2022-09-09T03:17:50;11.02;;;6.53;;
41546;SDS011;27271;45.412;10.852;2022-09-09T03:21:13;8.98;;;6.30;;
41546;SDS011;27271;45.412;10.852;2022-09-09T03:24:36;10.70;;;6.65;;
41546;SDS011;27271;45.412;10.852;2022-09-09T03:27:59;10.77;;;6.78;;
41546;SDS011;27271;45.412;10.852;2022-09-09T03:31:21;14.80;;;7.20;;
41546;SDS011;27271;45.412;10.852;2022-09-09T03:34:44;13.82;;;7.65;;
41546;SDS011;27271;45.412;10.852;2022-09-09T03:38:11;11.68;;;7.00;;
41546;SDS011;27271;45.412;10.852;2022-09-09T03:41:33;12.57;;;7.78;;
41546;SDS011;27271;45.412;10.852;2022-09-09T03:44:56;11.80;;;7.07;;
41546;SDS011;27271;45.412;10.852;2022-09-09T03:48:19;13.10;;;7.00;;
41546;SDS011;27271;45.412;10.852;2022-09-09T03:51:42;13.60;;;7.10;;
41546;SDS011;27271;45.412;10.852;2022-09-09T03:55:07;11.27;;;7.25;;
41546;SDS011;27271;45.412;10.852;2022-09-09T03:58:30;13.73;;;6.68;;
41546;SDS011;27271;45.412;10.852;2022-09-09T04:02:00;10.38;;;7.40;;
41546;SDS011;27271;45.412;10.852;2022-09-09T04:05:23;10.25;;;7.13;;
41546;SDS011;27271;45.412;10.852;2022-09-09T04:08:45;13.38;;;6.68;;
41546;SDS011;27271;45.412;10.852;2022-09-09T04:12:10;10.30;;;6.65;;
41546;SDS011;27271;45.412;10.852;2022-09-09T04:15:35;10.18;;;6.70;;
41546;SDS011;27271;45.412;10.852;2022-09-09T04:18:58;11.80;;;6.03;;
41546;SDS011;27271;45.412;10.852;2022-09-09T04:22:21;7.35;;;5.95;;
41546;SDS011;27271;45.412;10.852;2022-09-09T04:25:48;8.75;;;5.82;;
41546;SDS011;27271;45.412;10.852;2022-09-09T04:29:23;10.38;;;6.15;;
41546;SDS011;27271;45.412;10.852;2022-09-09T04:32:52;12.63;;;6.80;;
41546;SDS011;27271;45.412;10.852;2022-09-09T04:36:14;13.57;;;6.63;;
41546;SDS011;27271;45.412;10.852;2022-09-09T04:39:40;15.80;;;6.40;;
41546;SDS011;27271;45.412;10.852;2022-09-09T04:43:03;10.15;;;6.70;;
41546;SDS011;27271;45.412;10.852;2022-09-09T04:46:26;8.68;;;6.03;;
41546;SDS011;27271;45.412;10.852;2022-09-09T04:49:48;10.95;;;6.80;;
41546;SDS011;27271;45.412;10.852;2022-09-09T04:53:11;12.23;;;6.63;;
41546;SDS011;27271;45.412;10.852;2022-09-09T04:56:33;12.65;;;7.03;;
41546;SDS011;27271;45.412;10.852;2022-09-09T04:59:55;15.13;;;7.90;;
41546;SDS011;27271;45.412;10.852;2022-09-09T05:03:17;16.00;;;7.75;;
41546;SDS011;27271;45.412;10.852;2022-09-09T05:06:40;10.63;;;6.93;;
41546;SDS011;27271;45.412;10.852;2022-09-09T05:10:04;12.50;;;7.25;;
41546;SDS011;27271;45.412;10.852;2022-09-09T05:13:27;11.68;;;7.50;;
41546;SDS011;27271;45.412;10.852;2022-09-09T05:16:49;17.20;;;7.88;;
41546;SDS011;27271;45.412;10.852;2022-09-09T05:20:12;13.45;;;7.13;;
41546;SDS011;27271;45.412;10.852;2022-09-09T05:23:37;13.27;;;6.93;;
41546;SDS011;27271;45.412;10.852;2022-09-09T05:27:00;12.48;;;7.43;;
41546;SDS011;27271;45.412;10.852;2022-09-09T05:30:24;13.50;;;7.28;;
41546;SDS011;27271;45.412;10.852;2022-09-09T05:33:48;10.43;;;6.57;;
41546;SDS011;27271;45.412;10.852;2022-09-09T05:37:14;10.77;;;5.80;;
41546;SDS011;27271;45.412;10.852;2022-09-09T05:40:36;9.13;;;6.68;;
41546;SDS011;27271;45.412;10.852;2022-09-09T05:43:58;8.20;;;4.97;;
41546;SDS011;27271;45.412;10.852;2022-09-09T05:47:22;5.32;;;4.28;;
41546;SDS011;27271;45.412;10.852;2022-09-09T05:50:52;4.07;;;3.35;;
41546;SDS011;27271;45.412;10.852;2022-09-09T05:54:16;4.43;;;3.25;;
41546;SDS011;27271;45.412;10.852;2022-09-09T05:57:47;5.32;;;3.20;;
41546;SDS011;27271;45.412;10.852;2022-09-09T06:05:12;7.00;;;3.00;;
41546;SDS011;27271;45.412;10.852;2022-09-09T06:08:35;8.93;;;3.42;;
41546;SDS011;27271;45.412;10.852;2022-09-09T06:12:00;7.15;;;2.65;;
41546;SDS011;27271;45.412;10.852;2022-09-09T06:15:34;6.20;;;3.63;;
41546;SDS011;27271;45.412;10.852;2022-09-09T06:19:01;4.72;;;3.50;;
41546;SDS011;27271;45.412;10.852;2022-09-09T06:22:25;5.20;;;3.00;;
41546;SDS011;27271;45.412;10.852;2022-09-09T06:25:59;3.28;;;2.88;;
41546;SDS011;27271;45.412;10.852;2022-09-09T06:30:17;3.38;;;2.72;;
41546;SDS011;27271;45.412;10.852;2022-09-09T06:33:41;6.50;;;3.00;;
41546;SDS011;27271;45.412;10.852;2022-09-09T06:37:06;6.75;;;3.75;;
41546;SDS011;27271;45.412;10.852;2022-09-09T06:40:35;5.87;;;4.30;;
41546;SDS011;27271;45.412;10.852;2022-09-09T06:44:00;5.63;;;3.92;;
41546;SDS011;27271;45.412;10.852;2022-09-09T06:47:33;8.45;;;4.18;;
41546;SDS011;27271;45.412;10.852;2022-09-09T06:51:00;8.88;;;4.88;;
41546;SDS011;27271;45.412;10.852;2022-09-09T06:54:31;6.90;;;5.00;;
41546;SDS011;27271;45.412;10.852;2022-09-09T06:58:00;8.10;;;4.47;;
41546;SDS011;27271;45.412;10.852;2022-09-09T07:01:34;6.70;;;4.28;;
41546;SDS011;27271;45.412;10.852;2022-09-09T07:05:02;6.38;;;4.47;;
41546;SDS011;27271;45.412;10.852;2022-09-09T07:08:25;12.70;;;4.32;;
41546;SDS011;27271;45.412;10.852;2022-09-09T07:11:49;6.40;;;4.20;;
41546;SDS011;27271;45.412;10.852;2022-09-09T07:15:16;8.23;;;4.07;;
41546;SDS011;27271;45.412;10.852;2022-09-09T07:18:40;6.72;;;3.45;;
41546;SDS011;27271;45.412;10.852;2022-09-09T07:22:03;8.30;;;3.30;;
41546;SDS011;27271;45.412;10.852;2022-09-09T07:25:36;4.60;;;2.72;;
41546;SDS011;27271;45.412;10.852;2022-09-09T07:29:07;4.13;;;1.80;;
41546;SDS011;27271;45.412;10.852;2022-09-09T07:32:30;2.28;;;1.95;;
41546;SDS011;27271;45.412;10.852;2022-09-09T07:35:53;2.13;;;1.70;;
41546;SDS011;27271;45.412;10.852;2022-09-09T07:39:16;1.67;;;1.52;;
41546;SDS011;27271;45.412;10.852;2022-09-09T07:42:44;3.03;;;1.58;;
41546;SDS011;27271;45.412;10.852;2022-09-09T07:46:12;4.35;;;1.60;;
41546;SDS011;27271;45.412;10.852;2022-09-09T07:49:37;2.83;;;2.03;;
41546;SDS011;27271;45.412;10.852;2022-09-09T07:53:01;3.13;;;2.58;;
41546;SDS011;27271;45.412;10.852;2022-09-09T07:56:27;4.75;;;1.60;;
41546;SDS011;27271;45.412;10.852;2022-09-09T07:59:51;5.88;;;1.90;;
41546;SDS011;27271;45.412;10.852;2022-09-09T08:03:14;3.15;;;1.70;;
41546;SDS011;27271;45.412;10.852;2022-09-09T08:06:40;1.98;;;1.77;;
41546;SDS011;27271;45.412;10.852;2022-09-09T08:10:04;5.57;;;2.65;;
41546;SDS011;27271;45.412;10.852;2022-09-09T08:13:30;4.45;;;2.20;;
41546;SDS011;27271;45.412;10.852;2022-09-09T08:16:53;4.25;;;1.77;;
41546;SDS011;27271;45.412;10.852;2022-09-09T08:20:18;3.83;;;1.88;;
41546;SDS011;27271;45.412;10.852;2022-09-09T08:23:41;2.35;;;1.70;;
41546;SDS011;27271;45.412;10.852;2022-09-09T08:27:18;5.45;;;2.20;;
41546;SDS011;27271;45.412;10.852;2022-09-09T08:30:42;3.58;;;1.80;;
41546;SDS011;27271;45.412;10.852;2022-09-09T08:34:10;5.55;;;2.10;;
41546;SDS011;27271;45.412;10.852;2022-09-09T08:37:33;4.30;;;2.28;;
41546;SDS011;27271;45.412;10.852;2022-09-09T08:48:58;6.15;;;2.25;;
41546;SDS011;27271;45.412;10.852;2022-09-09T08:52:29;3.60;;;1.92;;
41546;SDS011;27271;45.412;10.852;2022-09-09T08:55:54;7.50;;;1.92;;
41546;SDS011;27271;45.412;10.852;2022-09-09T08:59:32;4.30;;;2.33;;
41546;SDS011;27271;45.412;10.852;2022-09-09T09:14:17;4.75;;;2.20;;
41546;SDS011;27271;45.412;10.852;2022-09-09T09:17:47;4.07;;;1.80;;
41546;SDS011;27271;45.412;10.852;2022-09-09T09:21:13;4.40;;;2.47;;
41546;SDS011;27271;45.412;10.852;2022-09-09T09:24:56;6.65;;;2.90;;
41546;SDS011;27271;45.412;10.852;2022-09-09T09:28:42;5.00;;;2.10;;
41546;SDS011;27271;45.412;10.852;2022-09-09T09:32:11;3.88;;;2.30;;
41546;SDS011;27271;45.412;10.852;2022-09-09T09:35:39;4.03;;;2.40;;
41546;SDS011;27271;45.412;10.852;2022-09-09T09:39:08;3.50;;;1.60;;
41546;SDS011;27271;45.412;10.852;2022-09-09T09:43:01;4.75;;;1.40;;
41546;SDS011;27271;45.412;10.852;2022-09-09T09:46:30;5.55;;;1.98;;
41546;SDS011;27271;45.412;10.852;2022-09-09T09:50:15;7.85;;;3.58;;
41546;SDS011;27271;45.412;10.852;2022-09-09T09:53:43;5.35;;;2.65;;
41546;SDS011;27271;45.412;10.852;2022-09-09T09:57:11;6.43;;;2.65;;
41546;SDS011;27271;45.412;10.852;2022-09-09T10:00:51;8.60;;;3.13;;
41546;SDS011;27271;45.412;10.852;2022-09-09T10:04:23;4.65;;;2.63;;
41546;SDS011;27271;45.412;10.852;2022-09-09T10:11:44;4.32;;;2.38;;
41546;SDS011;27271;45.412;10.852;2022-09-09T10:15:39;5.50;;;2.65;;
41546;SDS011;27271;45.412;10.852;2022-09-09T10:19:30;4.22;;;2.25;;
41546;SDS011;27271;45.412;10.852;2022-09-09T10:23:19;4.47;;;2.28;;
41546;SDS011;27271;45.412;10.852;2022-09-09T10:31:05;4.18;;;1.98;;
41546;SDS011;27271;45.412;10.852;2022-09-09T10:42:05;4.93;;;2.10;;
41546;SDS011;27271;45.412;10.852;2022-09-09T10:45:33;3.15;;;2.30;;
41546;SDS011;27271;45.412;10.852;2022-09-09T10:56:42;2.97;;;2.63;;
41546;SDS011;27271;45.412;10.852;2022-09-09T11:00:17;5.25;;;2.88;;
41546;SDS011;27271;45.412;10.852;2022-09-09T11:03:43;4.88;;;2.80;;
41546;SDS011;27271;45.412;10.852;2022-09-09T11:07:10;3.33;;;2.25;;
41546;SDS011;27271;45.412;10.852;2022-09-09T11:14:34;2.10;;;1.52;;
41546;SDS011;27271;45.412;10.852;2022-09-09T11:18:03;3.50;;;1.98;;
41546;SDS011;27271;45.412;10.852;2022-09-09T11:21:34;2.15;;;1.27;;
41546;SDS011;27271;45.412;10.852;2022-09-09T11:25:16;2.95;;;1.90;;
41546;SDS011;27271;45.412;10.852;2022-09-09T11:40:32;3.55;;;1.80;;
41546;SDS011;27271;45.412;10.852;2022-09-09T11:44:57;2.15;;;1.80;;
41546;SDS011;27271;45.412;10.852;2022-09-09T11:48:33;2.05;;;1.08;;
41546;SDS011;27271;45.412;10.852;2022-09-09T11:51:58;1.98;;;1.20;;
41546;SDS011;27271;45.412;10.852;2022-09-09T11:59:04;2.83;;;1.63;;
41546;SDS011;27271;45.412;10.852;2022-09-09T12:02:29;2.47;;;1.60;;
41546;SDS011;27271;45.412;10.852;2022-09-09T12:06:15;5.05;;;2.13;;
41546;SDS011;27271;45.412;10.852;2022-09-09T12:13:30;1.70;;;1.45;;
41546;SDS011;27271;45.412;10.852;2022-09-09T12:16:53;3.63;;;1.73;;
41546;SDS011;27271;45.412;10.852;2022-09-09T12:20:17;2.13;;;1.30;;
41546;SDS011;27271;45.412;10.852;2022-09-09T12:23:59;2.97;;;1.33;;
41546;SDS011;27271;45.412;10.852;2022-09-09T12:27:35;2.47;;;1.40;;
41546;SDS011;27271;45.412;10.852;2022-09-09T12:34:58;1.83;;;1.17;;
41546;SDS011;27271;45.412;10.852;2022-09-09T12:38:32;3.63;;;1.33;;
41546;SDS011;27271;45.412;10.852;2022-09-09T12:41:58;3.13;;;1.35;;
41546;SDS011;27271;45.412;10.852;2022-09-09T12:45:24;1.92;;;1.00;;
41546;SDS011;27271;45.412;10.852;2022-09-09T12:56:50;3.08;;;2.38;;
41546;SDS011;27271;45.412;10.852;2022-09-09T13:00:20;4.35;;;2.17;;
41546;SDS011;27271;45.412;10.852;2022-09-09T13:03:44;2.03;;;1.83;;
41546;SDS011;27271;45.412;10.852;2022-09-09T13:07:08;3.97;;;1.90;;
41546;SDS011;27271;45.412;10.852;2022-09-09T13:10:33;4.35;;;2.08;;
41546;SDS011;27271;45.412;10.852;2022-09-09T13:14:16;4.03;;;1.80;;
41546;SDS011;27271;45.412;10.852;2022-09-09T13:17:41;1.33;;;1.20;;
41546;SDS011;27271;45.412;10.852;2022-09-09T13:21:04;1.88;;;1.45;;
41546;SDS011;27271;45.412;10.852;2022-09-09T13:24:38;2.20;;;1.48;;
41546;SDS011;27271;45.412;10.852;2022-09-09T13:28:01;2.17;;;1.33;;
41546;SDS011;27271;45.412;10.852;2022-09-09T13:31:30;1.95;;;1.33;;
41546;SDS011;27271;45.412;10.852;2022-09-09T13:34:55;1.85;;;1.40;;
41546;SDS011;27271;45.412;10.852;2022-09-09T13:38:21;1.48;;;1.38;;
41546;SDS011;27271;45.412;10.852;2022-09-09T13:41:54;2.15;;;1.13;;
41546;SDS011;27271;45.412;10.852;2022-09-09T13:45:18;3.10;;;1.42;;
41546;SDS011;27271;45.412;10.852;2022-09-09T13:48:58;2.38;;;1.75;;
41546;SDS011;27271;45.412;10.852;2022-09-09T13:52:22;2.65;;;1.45;;
41546;SDS011;27271;45.412;10.852;2022-09-09T13:55:48;2.13;;;1.27;;
41546;SDS011;27271;45.412;10.852;2022-09-09T13:59:21;4.65;;;1.55;;
41546;SDS011;27271;45.412;10.852;2022-09-09T14:03:14;1.95;;;1.20;;
41546;SDS011;27271;45.412;10.852;2022-09-09T14:06:42;1.67;;;1.23;;
41546;SDS011;27271;45.412;10.852;2022-09-09T14:10:09;2.90;;;1.63;;
41546;SDS011;27271;45.412;10.852;2022-09-09T14:13:32;1.75;;;1.20;;
41546;SDS011;27271;45.412;10.852;2022-09-09T14:16:54;2.65;;;1.40;;
41546;SDS011;27271;45.412;10.852;2022-09-09T14:20:16;6.63;;;1.60;;
41546;SDS011;27271;45.412;10.852;2022-09-09T14:23:39;1.73;;;1.25;;
41546;SDS011;27271;45.412;10.852;2022-09-09T14:27:01;1.95;;;1.25;;
41546;SDS011;27271;45.412;10.852;2022-09-09T14:30:24;1.77;;;1.23;;
41546;SDS011;27271;45.412;10.852;2022-09-09T14:33:52;2.33;;;1.05;;
41546;SDS011;27271;45.412;10.852;2022-09-09T14:37:14;2.42;;;1.40;;
41546;SDS011;27271;45.412;10.852;2022-09-09T14:40:37;6.40;;;1.30;;
41546;SDS011;27271;45.412;10.852;2022-09-09T14:44:00;1.67;;;1.17;;
41546;SDS011;27271;45.412;10.852;2022-09-09T14:47:22;1.20;;;1.02;;
41546;SDS011;27271;45.412;10.852;2022-09-09T14:50:44;1.15;;;1.05;;
41546;SDS011;27271;45.412;10.852;2022-09-09T14:54:06;1.35;;;0.95;;
41546;SDS011;27271;45.412;10.852;2022-09-09T14:57:28;2.05;;;1.20;;
41546;SDS011;27271;45.412;10.852;2022-09-09T15:00:49;3.88;;;1.60;;
41546;SDS011;27271;45.412;10.852;2022-09-09T15:04:12;1.70;;;1.00;;
41546;SDS011;27271;45.412;10.852;2022-09-09T15:07:39;1.48;;;1.10;;
41546;SDS011;27271;45.412;10.852;2022-09-09T15:11:01;1.25;;;1.15;;
41546;SDS011;27271;45.412;10.852;2022-09-09T15:14:24;2.30;;;1.27;;
41546;SDS011;27271;45.412;10.852;2022-09-09T15:17:47;2.15;;;1.27;;
41546;SDS011;27271;45.412;10.852;2022-09-09T15:21:09;3.80;;;1.20;;
41546;SDS011;27271;45.412;10.852;2022-09-09T15:24:40;2.15;;;1.35;;
41546;SDS011;27271;45.412;10.852;2022-09-09T15:28:02;1.13;;;1.02;;
41546;SDS011;27271;45.412;10.852;2022-09-09T15:31:27;6.53;;;1.20;;
41546;SDS011;27271;45.412;10.852;2022-09-09T15:34:51;2.88;;;1.20;;
41546;SDS011;27271;45.412;10.852;2022-09-09T15:38:14;2.05;;;1.08;;
41546;SDS011;27271;45.412;10.852;2022-09-09T15:41:38;3.03;;;1.35;;
41546;SDS011;27271;45.412;10.852;2022-09-09T15:45:01;2.65;;;1.30;;
41546;SDS011;27271;45.412;10.852;2022-09-09T15:48:29;4.25;;;1.40;;
41546;SDS011;27271;45.412;10.852;2022-09-09T15:51:56;3.15;;;1.70;;
41546;SDS011;27271;45.412;10.852;2022-09-09T15:55:20;3.22;;;1.90;;
41546;SDS011;27271;45.412;10.852;2022-09-09T15:58:42;4.05;;;1.80;;
41546;SDS011;27271;45.412;10.852;2022-09-09T16:02:05;1.88;;;1.60;;
41546;SDS011;27271;45.412;10.852;2022-09-09T16:05:28;2.60;;;1.50;;
41546;SDS011;27271;45.412;10.852;2022-09-09T16:08:51;2.25;;;1.67;;
41546;SDS011;27271;45.412;10.852;2022-09-09T16:12:14;2.13;;;1.50;;
41546;SDS011;27271;45.412;10.852;2022-09-09T16:15:37;2.63;;;1.77;;
41546;SDS011;27271;45.412;10.852;2022-09-09T16:19:00;4.20;;;1.98;;
41546;SDS011;27271;45.412;10.852;2022-09-09T16:22:28;1.58;;;1.48;;
41546;SDS011;27271;45.412;10.852;2022-09-09T16:25:56;3.25;;;1.88;;
41546;SDS011;27271;45.412;10.852;2022-09-09T16:29:24;2.83;;;1.83;;
41546;SDS011;27271;45.412;10.852;2022-09-09T16:32:48;3.63;;;1.30;;
41546;SDS011;27271;45.412;10.852;2022-09-09T16:36:14;1.70;;;1.58;;
41546;SDS011;27271;45.412;10.852;2022-09-09T16:39:48;4.43;;;1.55;;
41546;SDS011;27271;45.412;10.852;2022-09-09T16:43:11;4.80;;;2.00;;
41546;SDS011;27271;45.412;10.852;2022-09-09T16:46:35;3.97;;;1.75;;
41546;SDS011;27271;45.412;10.852;2022-09-09T16:50:00;2.15;;;1.60;;
41546;SDS011;27271;45.412;10.852;2022-09-09T16:53:22;3.60;;;1.90;;
41546;SDS011;27271;45.412;10.852;2022-09-09T16:56:45;2.33;;;1.52;;
41546;SDS011;27271;45.412;10.852;2022-09-09T17:00:08;3.47;;;2.00;;
41546;SDS011;27271;45.412;10.852;2022-09-09T17:03:31;4.18;;;1.80;;
41546;SDS011;27271;45.412;10.852;2022-09-09T17:06:54;2.38;;;1.92;;
41546;SDS011;27271;45.412;10.852;2022-09-09T17:10:18;3.05;;;2.00;;
41546;SDS011;27271;45.412;10.852;2022-09-09T17:13:41;2.53;;;1.88;;
41546;SDS011;27271;45.412;10.852;2022-09-09T17:17:03;2.55;;;1.85;;
41546;SDS011;27271;45.412;10.852;2022-09-09T17:20:46;3.17;;;2.00;;
41546;SDS011;27271;45.412;10.852;2022-09-09T17:24:08;5.18;;;2.40;;
41546;SDS011;27271;45.412;10.852;2022-09-09T17:27:32;2.95;;;2.30;;
41546;SDS011;27271;45.412;10.852;2022-09-09T17:30:55;7.22;;;2.08;;
41546;SDS011;27271;45.412;10.852;2022-09-09T17:34:24;3.88;;;1.75;;
41546;SDS011;27271;45.412;10.852;2022-09-09T17:37:46;3.03;;;1.48;;
41546;SDS011;27271;45.412;10.852;2022-09-09T17:44:33;2.85;;;1.52;;
41546;SDS011;27271;45.412;10.852;2022-09-09T17:47:55;2.20;;;1.40;;
41546;SDS011;27271;45.412;10.852;2022-09-09T17:51:18;5.18;;;1.88;;
41546;SDS011;27271;45.412;10.852;2022-09-09T17:54:44;3.40;;;1.73;;
41546;SDS011;27271;45.412;10.852;2022-09-09T17:58:06;5.53;;;1.27;;
41546;SDS011;27271;45.412;10.852;2022-09-09T18:01:30;2.05;;;1.50;;
41546;SDS011;27271;45.412;10.852;2022-09-09T18:04:54;2.50;;;1.50;;
41546;SDS011;27271;45.412;10.852;2022-09-09T18:08:16;3.33;;;1.65;;
41546;SDS011;27271;45.412;10.852;2022-09-09T18:11:40;4.03;;;1.40;;
41546;SDS011;27271;45.412;10.852;2022-09-09T18:15:05;2.05;;;1.40;;
41546;SDS011;27271;45.412;10.852;2022-09-09T18:18:28;2.33;;;1.55;;
41546;SDS011;27271;45.412;10.852;2022-09-09T18:21:50;2.47;;;1.67;;
41546;SDS011;27271;45.412;10.852;2022-09-09T18:25:13;4.03;;;1.67;;
41546;SDS011;27271;45.412;10.852;2022-09-09T18:28:38;2.13;;;1.40;;
41546;SDS011;27271;45.412;10.852;2022-09-09T18:32:02;4.68;;;2.45;;
41546;SDS011;27271;45.412;10.852;2022-09-09T18:35:24;3.30;;;1.67;;
41546;SDS011;27271;45.412;10.852;2022-09-09T18:38:46;1.58;;;1.48;;
41546;SDS011;27271;45.412;10.852;2022-09-09T18:42:08;3.50;;;1.95;;
41546;SDS011;27271;45.412;10.852;2022-09-09T18:45:34;3.22;;;2.00;;
41546;SDS011;27271;45.412;10.852;2022-09-09T18:48:58;2.15;;;1.70;;
41546;SDS011;27271;45.412;10.852;2022-09-09T18:52:20;4.40;;;2.63;;
41546;SDS011;27271;45.412;10.852;2022-09-09T18:55:42;2.65;;;1.65;;
41546;SDS011;27271;45.412;10.852;2022-09-09T18:59:05;3.45;;;1.70;;
41546;SDS011;27271;45.412;10.852;2022-09-09T19:02:29;3.78;;;2.38;;
41546;SDS011;27271;45.412;10.852;2022-09-09T19:05:51;4.15;;;1.80;;
41546;SDS011;27271;45.412;10.852;2022-09-09T19:09:14;3.28;;;2.10;;
41546;SDS011;27271;45.412;10.852;2022-09-09T19:12:37;4.55;;;2.20;;
41546;SDS011;27271;45.412;10.852;2022-09-09T19:16:02;3.28;;;2.10;;
41546;SDS011;27271;45.412;10.852;2022-09-09T19:19:29;3.80;;;2.13;;
41546;SDS011;27271;45.412;10.852;2022-09-09T19:22:52;3.38;;;2.40;;
41546;SDS011;27271;45.412;10.852;2022-09-09T19:26:14;2.78;;;1.80;;
41546;SDS011;27271;45.412;10.852;2022-09-09T19:29:37;3.53;;;1.88;;
41546;SDS011;27271;45.412;10.852;2022-09-09T19:32:59;4.30;;;2.20;;
41546;SDS011;27271;45.412;10.852;2022-09-09T19:36:22;4.07;;;2.15;;
41546;SDS011;27271;45.412;10.852;2022-09-09T19:39:45;5.10;;;2.10;;
41546;SDS011;27271;45.412;10.852;2022-09-09T19:43:08;3.30;;;2.55;;
41546;SDS011;27271;45.412;10.852;2022-09-09T19:46:31;5.25;;;2.35;;
41546;SDS011;27271;45.412;10.852;2022-09-09T19:49:55;5.43;;;2.90;;
41546;SDS011;27271;45.412;10.852;2022-09-09T19:53:17;5.57;;;3.03;;
41546;SDS011;27271;45.412;10.852;2022-09-09T19:56:40;5.18;;;3.60;;
41546;SDS011;27271;45.412;10.852;2022-09-09T20:00:03;4.35;;;3.28;;
41546;SDS011;27271;45.412;10.852;2022-09-09T20:03:33;5.38;;;3.03;;
41546;SDS011;27271;45.412;10.852;2022-09-09T20:06:56;5.93;;;3.45;;
41546;SDS011;27271;45.412;10.852;2022-09-09T20:10:18;6.60;;;3.33;;
41546;SDS011;27271;45.412;10.852;2022-09-09T20:13:41;6.00;;;3.35;;
41546;SDS011;27271;45.412;10.852;2022-09-09T20:17:03;7.45;;;3.58;;
41546;SDS011;27271;45.412;10.852;2022-09-09T20:20:25;5.07;;;3.70;;
41546;SDS011;27271;45.412;10.852;2022-09-09T20:23:49;5.90;;;3.17;;
41546;SDS011;27271;45.412;10.852;2022-09-09T20:27:12;5.25;;;3.53;;
41546;SDS011;27271;45.412;10.852;2022-09-09T20:30:34;5.63;;;3.53;;
41546;SDS011;27271;45.412;10.852;2022-09-09T20:33:58;5.22;;;3.60;;
41546;SDS011;27271;45.412;10.852;2022-09-09T20:37:20;5.95;;;3.60;;
41546;SDS011;27271;45.412;10.852;2022-09-09T20:40:44;5.22;;;3.40;;
41546;SDS011;27271;45.412;10.852;2022-09-09T20:44:07;4.20;;;3.28;;
41546;SDS011;27271;45.412;10.852;2022-09-09T20:47:34;4.80;;;2.97;;
41546;SDS011;27271;45.412;10.852;2022-09-09T20:51:01;4.07;;;2.75;;
41546;SDS011;27271;45.412;10.852;2022-09-09T20:54:27;7.43;;;3.07;;
41546;SDS011;27271;45.412;10.852;2022-09-09T20:57:52;5.90;;;3.20;;
41546;SDS011;27271;45.412;10.852;2022-09-09T21:01:15;5.10;;;3.10;;
41546;SDS011;27271;45.412;10.852;2022-09-09T21:04:38;6.05;;;3.05;;
41546;SDS011;27271;45.412;10.852;2022-09-09T21:08:00;3.97;;;2.50;;
41546;SDS011;27271;45.412;10.852;2022-09-09T21:11:23;9.15;;;3.28;;
41546;SDS011;27271;45.412;10.852;2022-09-09T21:14:45;5.38;;;3.67;;
41546;SDS011;27271;45.412;10.852;2022-09-09T21:18:07;15.15;;;4.75;;
41546;SDS011;27271;45.412;10.852;2022-09-09T21:21:29;8.73;;;4.35;;
41546;SDS011;27271;45.412;10.852;2022-09-09T21:24:52;7.10;;;3.72;;
41546;SDS011;27271;45.412;10.852;2022-09-09T21:28:14;7.25;;;4.30;;
41546;SDS011;27271;45.412;10.852;2022-09-09T21:31:36;8.70;;;4.32;;
41546;SDS011;27271;45.412;10.852;2022-09-09T21:34:58;9.82;;;4.22;;
41546;SDS011;27271;45.412;10.852;2022-09-09T21:38:22;6.95;;;4.38;;
41546;SDS011;27271;45.412;10.852;2022-09-09T21:41:45;7.20;;;3.70;;
41546;SDS011;27271;45.412;10.852;2022-09-09T21:45:08;10.82;;;5.10;;
41546;SDS011;27271;45.412;10.852;2022-09-09T21:48:30;9.40;;;4.00;;
41546;SDS011;27271;45.412;10.852;2022-09-09T21:51:52;5.03;;;3.10;;
41546;SDS011;27271;45.412;10.852;2022-09-09T21:55:14;5.60;;;3.33;;
41546;SDS011;27271;45.412;10.852;2022-09-09T21:58:37;18.83;;;3.65;;
41546;SDS011;27271;45.412;10.852;2022-09-09T22:01:59;7.38;;;3.80;;
41546;SDS011;27271;45.412;10.852;2022-09-09T22:05:22;5.60;;;3.30;;
41546;SDS011;27271;45.412;10.852;2022-09-09T22:08:44;6.28;;;3.72;;
41546;SDS011;27271;45.412;10.852;2022-09-09T22:12:06;9.77;;;4.93;;
41546;SDS011;27271;45.412;10.852;2022-09-09T22:15:29;5.65;;;3.85;;
41546;SDS011;27271;45.412;10.852;2022-09-09T22:18:54;5.68;;;3.88;;
41546;SDS011;27271;45.412;10.852;2022-09-09T22:22:17;7.35;;;4.20;;